sensor_id;sensor_type;location;lat;lon;timestamp;pressure;altitude;pressure_sealevel;temperature;humidity
57801;BME280;43627;42.728;23.256;2023-08-12T00:00:10;95560.72;;;15.75;100.00
57801;BME280;43627;42.728;23.256;2023-08-12T00:02:39;95564.41;;;15.72;100.00
57801;BME280;43627;42.728;23.256;2023-08-12T00:05:07;95560.22;;;15.77;100.00
57801;BME280;43627;42.728;23.256;2023-08-12T00:07:34;95557.97;;;15.75;100.00
57801;BME280;43627;42.728;23.256;2023-08-12T00:10:02;95563.19;;;15.73;100.00
57801;BME280;43627;42.728;23.256;2023-08-12T00:12:34;95562.22;;;15.76;100.00
57801;BME280;43627;42.728;23.256;2023-08-12T00:15:02;95553.41;;;15.72;100.00
57801;BME280;43627;42.728;23.256;2023-08-12T00:17:30;95554.47;;;15.75;100.00
57801;BME280;43627;42.728;23.256;2023-08-12T00:19:57;95545.31;;;15.63;100.00
57801;BME280;43627;42.728;23.256;2023-08-12T00:22:24;95560.38;;;15.67;100.00
57801;BME280;43627;42.728;23.256;2023-08-12T00:24:51;95555.13;;;15.69;100.00
57801;BME280;43627;42.728;23.256;2023-08-12T00:27:18;95550.88;;;15.68;100.00
57801;BME280;43627;42.728;23.256;2023-08-12T00:29:44;95539.03;;;15.62;100.00
57801;BME280;43627;42.728;23.256;2023-08-12T00:32:11;95556.38;;;15.68;100.00
57801;BME280;43627;42.728;23.256;2023-08-12T00:34:38;95555.63;;;15.68;100.00
57801;BME280;43627;42.728;23.256;2023-08-12T00:37:04;95552.13;;;15.67;100.00
57801;BME280;43627;42.728;23.256;2023-08-12T00:39:31;95559.97;;;15.75;100.00
57801;BME280;43627;42.728;23.256;2023-08-12T00:41:58;95552.88;;;15.68;100.00
57801;BME280;43627;42.728;23.256;2023-08-12T00:44:25;95554.66;;;15.71;100.00
57801;BME280;43627;42.728;23.256;2023-08-12T00:46:52;95535.13;;;15.69;100.00
57801;BME280;43627;42.728;23.256;2023-08-12T00:49:19;95548.22;;;15.74;100.00
57801;BME280;43627;42.728;23.256;2023-08-12T00:51:46;95540.75;;;15.80;100.00
57801;BME280;43627;42.728;23.256;2023-08-12T00:54:14;95536.25;;;15.77;100.00
57801;BME280;43627;42.728;23.256;2023-08-12T00:56:43;95532.78;;;15.82;100.00
57801;BME280;43627;42.728;23.256;2023-08-12T00:59:10;95541.88;;;15.88;100.00
57801;BME280;43627;42.728;23.256;2023-08-12T01:01:40;95538.13;;;15.91;100.00
57801;BME280;43627;42.728;23.256;2023-08-12T01:04:10;95536.84;;;15.87;100.00
57801;BME280;43627;42.728;23.256;2023-08-12T01:06:37;95540.50;;;15.78;100.00
57801;BME280;43627;42.728;23.256;2023-08-12T01:09:05;95528.25;;;15.79;100.00
57801;BME280;43627;42.728;23.256;2023-08-12T01:15:01;95524.72;;;15.73;100.00
57801;BME280;43627;42.728;23.256;2023-08-12T01:17:08;95519.88;;;15.68;100.00
57801;BME280;43627;42.728;23.256;2023-08-12T01:19:39;95480.41;;;15.30;100.00
57801;BME280;43627;42.728;23.256;2023-08-12T01:22:10;95527.59;;;15.64;100.00
57801;BME280;43627;42.728;23.256;2023-08-12T01:27:06;95529.00;;;15.59;100.00
57801;BME280;43627;42.728;23.256;2023-08-12T01:29:35;95518.34;;;15.47;100.00
57801;BME280;43627;42.728;23.256;2023-08-12T01:34:58;95530.97;;;15.38;100.00
57801;BME280;43627;42.728;23.256;2023-08-12T01:37:28;95529.88;;;15.30;100.00
57801;BME280;43627;42.728;23.256;2023-08-12T01:40:00;95521.50;;;15.39;100.00
57801;BME280;43627;42.728;23.256;2023-08-12T01:42:27;95518.13;;;15.30;100.00
57801;BME280;43627;42.728;23.256;2023-08-12T01:44:55;95521.38;;;15.49;100.00
57801;BME280;43627;42.728;23.256;2023-08-12T01:47:22;95519.84;;;15.48;100.00
57801;BME280;43627;42.728;23.256;2023-08-12T01:49:49;95516.13;;;15.51;100.00
57801;BME280;43627;42.728;23.256;2023-08-12T01:52:15;95526.47;;;15.56;100.00
57801;BME280;43627;42.728;23.256;2023-08-12T01:54:42;95529.28;;;15.61;100.00
57801;BME280;43627;42.728;23.256;2023-08-12T01:57:09;95534.97;;;15.58;100.00
57801;BME280;43627;42.728;23.256;2023-08-12T01:59:36;95530.63;;;15.51;100.00
57801;BME280;43627;42.728;23.256;2023-08-12T02:02:03;95531.03;;;15.44;100.00
57801;BME280;43627;42.728;23.256;2023-08-12T02:04:30;95537.09;;;15.48;100.00
57801;BME280;43627;42.728;23.256;2023-08-12T02:06:57;95521.63;;;15.30;100.00
57801;BME280;43627;42.728;23.256;2023-08-12T02:09:24;95535.38;;;15.30;100.00
57801;BME280;43627;42.728;23.256;2023-08-12T02:11:50;95537.84;;;15.28;100.00
57801;BME280;43627;42.728;23.256;2023-08-12T02:14:17;95526.63;;;15.11;100.00
57801;BME280;43627;42.728;23.256;2023-08-12T02:16:44;95526.72;;;15.02;100.00
57801;BME280;43627;42.728;23.256;2023-08-12T02:19:11;95525.13;;;14.96;100.00
57801;BME280;43627;42.728;23.256;2023-08-12T02:21:37;95520.88;;;14.95;100.00
57801;BME280;43627;42.728;23.256;2023-08-12T02:24:04;95518.34;;;14.91;100.00
57801;BME280;43627;42.728;23.256;2023-08-12T02:26:31;95522.03;;;14.88;100.00
57801;BME280;43627;42.728;23.256;2023-08-12T02:28:58;95524.00;;;14.88;100.00
57801;BME280;43627;42.728;23.256;2023-08-12T02:31:25;95520.06;;;14.89;100.00
57801;BME280;43627;42.728;23.256;2023-08-12T02:33:51;95536.13;;;14.96;100.00
57801;BME280;43627;42.728;23.256;2023-08-12T02:36:18;95527.59;;;14.94;100.00
57801;BME280;43627;42.728;23.256;2023-08-12T02:38:45;95530.06;;;14.92;100.00
57801;BME280;43627;42.728;23.256;2023-08-12T02:41:12;95528.19;;;14.83;100.00
57801;BME280;43627;42.728;23.256;2023-08-12T02:43:38;95530.47;;;14.84;100.00
57801;BME280;43627;42.728;23.256;2023-08-12T02:46:05;95535.88;;;14.79;100.00
57801;BME280;43627;42.728;23.256;2023-08-12T02:48:32;95531.91;;;14.80;100.00
57801;BME280;43627;42.728;23.256;2023-08-12T02:50:58;95532.94;;;14.82;100.00
57801;BME280;43627;42.728;23.256;2023-08-12T02:53:25;95537.66;;;14.82;100.00
57801;BME280;43627;42.728;23.256;2023-08-12T02:55:52;95538.03;;;14.90;100.00
57801;BME280;43627;42.728;23.256;2023-08-12T02:58:18;95540.47;;;14.88;100.00
57801;BME280;43627;42.728;23.256;2023-08-12T03:00:45;95537.19;;;14.83;100.00
57801;BME280;43627;42.728;23.256;2023-08-12T03:03:12;95534.91;;;14.82;100.00
57801;BME280;43627;42.728;23.256;2023-08-12T03:05:39;95542.84;;;14.95;100.00
57801;BME280;43627;42.728;23.256;2023-08-12T03:08:05;95546.44;;;15.01;100.00
57801;BME280;43627;42.728;23.256;2023-08-12T03:10:36;95545.56;;;15.09;100.00
57801;BME280;43627;42.728;23.256;2023-08-12T03:13:02;95550.66;;;15.17;100.00
57801;BME280;43627;42.728;23.256;2023-08-12T03:15:29;95547.44;;;15.18;100.00
57801;BME280;43627;42.728;23.256;2023-08-12T03:17:56;95550.47;;;15.20;100.00
57801;BME280;43627;42.728;23.256;2023-08-12T03:20:23;95554.59;;;15.30;100.00
57801;BME280;43627;42.728;23.256;2023-08-12T03:22:50;95554.38;;;15.34;100.00
57801;BME280;43627;42.728;23.256;2023-08-12T03:25:17;95554.19;;;15.37;100.00
57801;BME280;43627;42.728;23.256;2023-08-12T03:27:43;95557.06;;;15.28;100.00
57801;BME280;43627;42.728;23.256;2023-08-12T03:30:10;95547.44;;;15.18;100.00
57801;BME280;43627;42.728;23.256;2023-08-12T03:32:37;95549.31;;;15.27;100.00
57801;BME280;43627;42.728;23.256;2023-08-12T03:35:04;95558.59;;;15.29;100.00
57801;BME280;43627;42.728;23.256;2023-08-12T03:37:31;95563.13;;;15.32;100.00
57801;BME280;43627;42.728;23.256;2023-08-12T03:39:57;95560.50;;;15.43;100.00
57801;BME280;43627;42.728;23.256;2023-08-12T03:42:24;95561.91;;;15.54;100.00
57801;BME280;43627;42.728;23.256;2023-08-12T03:44:51;95548.63;;;15.67;100.00
57801;BME280;43627;42.728;23.256;2023-08-12T03:47:17;95562.34;;;15.67;100.00
57801;BME280;43627;42.728;23.256;2023-08-12T03:49:48;95569.72;;;15.76;100.00
57801;BME280;43627;42.728;23.256;2023-08-12T03:52:15;95561.19;;;15.74;100.00
57801;BME280;43627;42.728;23.256;2023-08-12T03:54:42;95563.25;;;15.79;100.00
57801;BME280;43627;42.728;23.256;2023-08-12T03:57:09;95568.81;;;15.84;100.00
57801;BME280;43627;42.728;23.256;2023-08-12T03:59:36;95563.72;;;15.97;100.00
57801;BME280;43627;42.728;23.256;2023-08-12T04:02:03;95566.19;;;15.95;100.00
57801;BME280;43627;42.728;23.256;2023-08-12T04:04:30;95559.25;;;16.00;100.00
57801;BME280;43627;42.728;23.256;2023-08-12T04:06:57;95554.06;;;16.08;100.00
57801;BME280;43627;42.728;23.256;2023-08-12T04:09:24;95568.53;;;16.03;100.00
57801;BME280;43627;42.728;23.256;2023-08-12T04:11:50;95564.13;;;15.90;100.00
57801;BME280;43627;42.728;23.256;2023-08-12T04:14:17;95549.19;;;15.56;100.00
57801;BME280;43627;42.728;23.256;2023-08-12T04:16:44;95571.81;;;15.46;100.00
57801;BME280;43627;42.728;23.256;2023-08-12T04:19:10;95575.28;;;15.26;100.00
57801;BME280;43627;42.728;23.256;2023-08-12T04:21:37;95576.81;;;15.12;100.00
57801;BME280;43627;42.728;23.256;2023-08-12T04:24:04;95580.16;;;15.01;100.00
57801;BME280;43627;42.728;23.256;2023-08-12T04:26:31;95566.31;;;14.96;100.00
57801;BME280;43627;42.728;23.256;2023-08-12T04:28:58;95576.06;;;15.11;100.00
57801;BME280;43627;42.728;23.256;2023-08-12T04:31:25;95574.53;;;15.10;100.00
57801;BME280;43627;42.728;23.256;2023-08-12T04:33:51;95590.63;;;15.18;100.00
57801;BME280;43627;42.728;23.256;2023-08-12T04:36:19;95583.31;;;15.29;100.00
57801;BME280;43627;42.728;23.256;2023-08-12T04:38:46;95586.22;;;15.40;100.00
57801;BME280;43627;42.728;23.256;2023-08-12T04:41:13;95579.91;;;15.20;100.00
57801;BME280;43627;42.728;23.256;2023-08-12T04:43:39;95582.81;;;15.31;100.00
57801;BME280;43627;42.728;23.256;2023-08-12T04:46:06;95583.22;;;15.59;100.00
57801;BME280;43627;42.728;23.256;2023-08-12T04:48:33;95579.81;;;15.84;100.00
57801;BME280;43627;42.728;23.256;2023-08-12T04:51:00;95574.34;;;16.10;100.00
57801;BME280;43627;42.728;23.256;2023-08-12T04:53:28;95575.69;;;16.93;100.00
57801;BME280;43627;42.728;23.256;2023-08-12T04:55:55;95575.69;;;18.38;100.00
57801;BME280;43627;42.728;23.256;2023-08-12T04:58:22;95583.75;;;19.81;87.23
57801;BME280;43627;42.728;23.256;2023-08-12T05:00:50;95582.66;;;20.59;75.62
57801;BME280;43627;42.728;23.256;2023-08-12T05:03:18;95584.28;;;21.15;69.86
57801;BME280;43627;42.728;23.256;2023-08-12T05:05:52;95592.75;;;22.26;63.10
57801;BME280;43627;42.728;23.256;2023-08-12T05:08:19;95586.59;;;22.89;58.96
57801;BME280;43627;42.728;23.256;2023-08-12T05:10:48;95580.31;;;22.83;56.73
57801;BME280;43627;42.728;23.256;2023-08-12T05:13:16;95593.97;;;22.49;57.73
57801;BME280;43627;42.728;23.256;2023-08-12T05:15:46;95575.41;;;22.95;55.71
57801;BME280;43627;42.728;23.256;2023-08-12T05:18:14;95586.19;;;22.79;57.07
57801;BME280;43627;42.728;23.256;2023-08-12T05:20:41;95589.69;;;22.86;55.79
57801;BME280;43627;42.728;23.256;2023-08-12T05:23:12;95597.66;;;22.57;59.18
57801;BME280;43627;42.728;23.256;2023-08-12T05:25:39;95593.97;;;22.87;55.37
57801;BME280;43627;42.728;23.256;2023-08-12T05:28:07;95599.59;;;22.62;56.80
57801;BME280;43627;42.728;23.256;2023-08-12T05:30:35;95592.53;;;22.61;57.60
57801;BME280;43627;42.728;23.256;2023-08-12T05:33:02;95601.59;;;22.80;57.18
57801;BME280;43627;42.728;23.256;2023-08-12T05:35:33;95600.56;;;22.65;57.69
57801;BME280;43627;42.728;23.256;2023-08-12T05:38:00;95597.84;;;22.21;57.17
57801;BME280;43627;42.728;23.256;2023-08-12T05:40:27;95598.00;;;22.10;59.65
57801;BME280;43627;42.728;23.256;2023-08-12T05:42:54;95597.63;;;21.46;62.88
57801;BME280;43627;42.728;23.256;2023-08-12T05:45:21;95601.97;;;21.66;63.81
57801;BME280;43627;42.728;23.256;2023-08-12T05:47:47;95590.34;;;21.92;61.23
57801;BME280;43627;42.728;23.256;2023-08-12T05:50:14;95594.72;;;22.06;60.73
57801;BME280;43627;42.728;23.256;2023-08-12T05:52:43;95599.72;;;21.89;62.50
57801;BME280;43627;42.728;23.256;2023-08-12T05:55:10;95589.91;;;21.63;65.86
57801;BME280;43627;42.728;23.256;2023-08-12T05:57:37;95592.06;;;21.95;64.39
57801;BME280;43627;42.728;23.256;2023-08-12T06:00:04;95597.19;;;21.91;64.57
57801;BME280;43627;42.728;23.256;2023-08-12T06:02:31;95591.63;;;21.66;63.34
57801;BME280;43627;42.728;23.256;2023-08-12T06:04:58;95590.75;;;21.77;62.98
57801;BME280;43627;42.728;23.256;2023-08-12T06:07:25;95594.06;;;21.76;63.61
57801;BME280;43627;42.728;23.256;2023-08-12T06:09:51;95589.19;;;21.57;62.94
57801;BME280;43627;42.728;23.256;2023-08-12T06:12:18;95580.31;;;21.64;64.45
57801;BME280;43627;42.728;23.256;2023-08-12T06:14:44;95581.06;;;21.89;61.83
57801;BME280;43627;42.728;23.256;2023-08-12T06:17:11;95580.97;;;22.19;62.08
57801;BME280;43627;42.728;23.256;2023-08-12T06:19:38;95574.28;;;22.09;59.32
57801;BME280;43627;42.728;23.256;2023-08-12T06:22:04;95576.34;;;22.03;59.74
57801;BME280;43627;42.728;23.256;2023-08-12T06:24:31;95583.88;;;22.08;60.47
57801;BME280;43627;42.728;23.256;2023-08-12T06:26:58;95586.25;;;21.99;59.82
57801;BME280;43627;42.728;23.256;2023-08-12T06:29:25;95576.53;;;21.86;61.10
57801;BME280;43627;42.728;23.256;2023-08-12T06:31:52;95571.44;;;21.90;62.33
57801;BME280;43627;42.728;23.256;2023-08-12T06:34:19;95572.25;;;22.10;61.52
57801;BME280;43627;42.728;23.256;2023-08-12T06:36:46;95558.59;;;22.12;62.66
57801;BME280;43627;42.728;23.256;2023-08-12T06:39:12;95565.81;;;22.20;60.95
57801;BME280;43627;42.728;23.256;2023-08-12T06:41:40;95566.06;;;21.49;66.16
57801;BME280;43627;42.728;23.256;2023-08-12T06:44:06;95563.69;;;21.34;65.79
57801;BME280;43627;42.728;23.256;2023-08-12T06:46:33;95561.25;;;20.95;70.80
57801;BME280;43627;42.728;23.256;2023-08-12T06:49:00;95566.72;;;21.01;72.11
57801;BME280;43627;42.728;23.256;2023-08-12T06:51:26;95565.56;;;21.21;67.56
57801;BME280;43627;42.728;23.256;2023-08-12T06:53:53;95551.44;;;20.94;72.08
57801;BME280;43627;42.728;23.256;2023-08-12T06:56:20;95559.78;;;20.89;71.86
57801;BME280;43627;42.728;23.256;2023-08-12T06:58:46;95556.72;;;20.92;73.94
57801;BME280;43627;42.728;23.256;2023-08-12T07:01:13;95547.41;;;21.20;72.54
57801;BME280;43627;42.728;23.256;2023-08-12T07:03:41;95554.50;;;21.70;69.46
57801;BME280;43627;42.728;23.256;2023-08-12T07:06:08;95554.34;;;21.07;72.35
57801;BME280;43627;42.728;23.256;2023-08-12T07:08:35;95559.22;;;21.26;67.72
57801;BME280;43627;42.728;23.256;2023-08-12T07:11:01;95547.09;;;21.29;70.15
57801;BME280;43627;42.728;23.256;2023-08-12T07:13:28;95556.59;;;21.39;70.81
57801;BME280;43627;42.728;23.256;2023-08-12T07:15:55;95545.31;;;21.56;69.47
57801;BME280;43627;42.728;23.256;2023-08-12T07:18:22;95553.44;;;21.97;66.73
57801;BME280;43627;42.728;23.256;2023-08-12T07:20:50;95548.38;;;21.77;66.80
57801;BME280;43627;42.728;23.256;2023-08-12T07:23:16;95541.25;;;21.81;64.32
57801;BME280;43627;42.728;23.256;2023-08-12T07:25:48;95559.72;;;22.41;61.71
57801;BME280;43627;42.728;23.256;2023-08-12T07:28:15;95553.94;;;22.39;59.91
57801;BME280;43627;42.728;23.256;2023-08-12T07:30:42;95561.69;;;22.46;55.05
57801;BME280;43627;42.728;23.256;2023-08-12T07:33:08;95545.06;;;22.21;55.59
57801;BME280;43627;42.728;23.256;2023-08-12T07:35:35;95536.16;;;21.85;57.48
57801;BME280;43627;42.728;23.256;2023-08-12T07:38:02;95552.81;;;22.10;58.68
57801;BME280;43627;42.728;23.256;2023-08-12T07:40:29;95554.91;;;22.22;59.04
57801;BME280;43627;42.728;23.256;2023-08-12T07:42:56;95539.19;;;22.63;54.18
57801;BME280;43627;42.728;23.256;2023-08-12T07:45:22;95537.81;;;22.88;54.05
57801;BME280;43627;42.728;23.256;2023-08-12T07:47:50;95539.94;;;23.14;53.45
57801;BME280;43627;42.728;23.256;2023-08-12T07:50:18;95532.31;;;22.83;52.36
57801;BME280;43627;42.728;23.256;2023-08-12T07:52:45;95525.22;;;22.68;51.93
57801;BME280;43627;42.728;23.256;2023-08-12T07:55:12;95539.72;;;22.61;51.63
57801;BME280;43627;42.728;23.256;2023-08-12T07:57:39;95528.00;;;22.68;50.63
57801;BME280;43627;42.728;23.256;2023-08-12T08:00:06;95529.69;;;22.90;49.73
57801;BME280;43627;42.728;23.256;2023-08-12T08:02:34;95469.09;;;22.38;50.61
57801;BME280;43627;42.728;23.256;2023-08-12T08:05:01;95511.84;;;22.99;50.42
57801;BME280;43627;42.728;23.256;2023-08-12T08:07:29;95532.75;;;23.19;49.58
57801;BME280;43627;42.728;23.256;2023-08-12T08:09:56;95533.41;;;23.25;47.86
57801;BME280;43627;42.728;23.256;2023-08-12T08:12:23;95526.44;;;23.18;47.63
57801;BME280;43627;42.728;23.256;2023-08-12T08:14:50;95517.91;;;23.29;47.89
57801;BME280;43627;42.728;23.256;2023-08-12T08:17:17;95530.66;;;23.38;47.77
57801;BME280;43627;42.728;23.256;2023-08-12T08:19:44;95511.28;;;23.46;47.08
57801;BME280;43627;42.728;23.256;2023-08-12T08:22:11;95526.06;;;23.54;49.63
57801;BME280;43627;42.728;23.256;2023-08-12T08:24:42;95524.38;;;23.64;47.26
57801;BME280;43627;42.728;23.256;2023-08-12T08:27:14;95457.56;;;23.24;47.04
57801;BME280;43627;42.728;23.256;2023-08-12T08:29:41;95527.59;;;23.68;48.68
57801;BME280;43627;42.728;23.256;2023-08-12T08:32:08;95533.25;;;23.76;47.76
57801;BME280;43627;42.728;23.256;2023-08-12T08:34:35;95525.66;;;23.89;46.75
57801;BME280;43627;42.728;23.256;2023-08-12T08:37:06;95513.84;;;23.97;45.55
57801;BME280;43627;42.728;23.256;2023-08-12T08:39:34;95525.88;;;23.78;45.92
57801;BME280;43627;42.728;23.256;2023-08-12T08:42:02;95491.81;;;23.32;45.72
57801;BME280;43627;42.728;23.256;2023-08-12T08:44:33;95488.16;;;23.37;46.69
57801;BME280;43627;42.728;23.256;2023-08-12T08:47:01;95495.38;;;23.59;47.65
57801;BME280;43627;42.728;23.256;2023-08-12T08:49:28;95457.66;;;23.58;46.00
57801;BME280;43627;42.728;23.256;2023-08-12T08:51:58;95461.00;;;23.70;45.71
57801;BME280;43627;42.728;23.256;2023-08-12T08:54:25;95478.22;;;23.82;45.77
57801;BME280;43627;42.728;23.256;2023-08-12T08:56:52;95490.97;;;23.90;45.19
57801;BME280;43627;42.728;23.256;2023-08-12T08:59:25;95511.06;;;23.97;44.45
57801;BME280;43627;42.728;23.256;2023-08-12T09:01:53;95510.22;;;24.02;45.03
57801;BME280;43627;42.728;23.256;2023-08-12T09:04:25;95496.59;;;24.11;43.67
57801;BME280;43627;42.728;23.256;2023-08-12T09:06:54;95482.16;;;24.00;43.79
57801;BME280;43627;42.728;23.256;2023-08-12T09:09:21;95495.09;;;24.10;44.22
57801;BME280;43627;42.728;23.256;2023-08-12T09:11:54;95483.50;;;24.06;44.07
57801;BME280;43627;42.728;23.256;2023-08-12T09:14:22;95473.66;;;24.18;44.52
57801;BME280;43627;42.728;23.256;2023-08-12T09:16:50;95480.84;;;24.48;43.72
57801;BME280;43627;42.728;23.256;2023-08-12T09:19:16;95491.94;;;24.82;43.19
57801;BME280;43627;42.728;23.256;2023-08-12T09:21:43;95489.59;;;24.86;42.67
57801;BME280;43627;42.728;23.256;2023-08-12T09:24:24;95473.41;;;24.85;43.05
57801;BME280;43627;42.728;23.256;2023-08-12T09:26:54;95476.25;;;24.92;43.36
57801;BME280;43627;42.728;23.256;2023-08-12T09:29:32;95437.03;;;24.98;42.85
57801;BME280;43627;42.728;23.256;2023-08-12T09:34:36;95469.38;;;24.72;43.01
57801;BME280;43627;42.728;23.256;2023-08-12T09:37:03;95468.66;;;25.00;42.12
57801;BME280;43627;42.728;23.256;2023-08-12T09:39:30;95416.66;;;24.61;41.86
57801;BME280;43627;42.728;23.256;2023-08-12T09:41:57;95462.44;;;24.87;42.16
57801;BME280;43627;42.728;23.256;2023-08-12T09:44:24;95426.72;;;24.85;41.41
57801;BME280;43627;42.728;23.256;2023-08-12T09:46:57;95444.47;;;25.16;41.17
57801;BME280;43627;42.728;23.256;2023-08-12T09:49:25;95441.59;;;25.09;40.97
57801;BME280;43627;42.728;23.256;2023-08-12T09:51:52;95419.25;;;24.80;41.09
57801;BME280;43627;42.728;23.256;2023-08-12T09:54:19;95446.50;;;25.16;41.58
57801;BME280;43627;42.728;23.256;2023-08-12T09:56:48;95431.31;;;25.24;40.66
57801;BME280;43627;42.728;23.256;2023-08-12T09:59:19;95408.38;;;25.18;41.00
57801;BME280;43627;42.728;23.256;2023-08-12T10:01:49;95389.84;;;25.28;40.12
57801;BME280;43627;42.728;23.256;2023-08-12T10:04:17;95438.16;;;25.52;39.24
57801;BME280;43627;42.728;23.256;2023-08-12T10:06:45;95435.56;;;25.54;39.99
57801;BME280;43627;42.728;23.256;2023-08-12T10:09:15;95393.53;;;25.59;39.76
57801;BME280;43627;42.728;23.256;2023-08-12T10:11:43;95410.75;;;25.71;40.30
57801;BME280;43627;42.728;23.256;2023-08-12T10:14:13;95423.69;;;25.61;39.89
57801;BME280;43627;42.728;23.256;2023-08-12T10:16:45;95420.69;;;25.95;39.98
57801;BME280;43627;42.728;23.256;2023-08-12T10:19:15;95428.56;;;26.12;39.32
57801;BME280;43627;42.728;23.256;2023-08-12T10:21:44;95433.13;;;26.38;39.28
57801;BME280;43627;42.728;23.256;2023-08-12T10:24:13;95428.97;;;26.24;39.40
57801;BME280;43627;42.728;23.256;2023-08-12T10:26:42;95419.56;;;26.65;39.29
57801;BME280;43627;42.728;23.256;2023-08-12T10:29:09;95423.47;;;26.85;38.60
57801;BME280;43627;42.728;23.256;2023-08-12T10:31:38;95370.69;;;26.89;36.67
57801;BME280;43627;42.728;23.256;2023-08-12T10:34:06;95416.56;;;27.16;36.64
57801;BME280;43627;42.728;23.256;2023-08-12T10:36:33;95379.03;;;27.27;35.99
57801;BME280;43627;42.728;23.256;2023-08-12T10:39:08;95386.09;;;27.43;36.03
57801;BME280;43627;42.728;23.256;2023-08-12T10:41:37;95394.63;;;27.60;35.88
57801;BME280;43627;42.728;23.256;2023-08-12T10:44:05;95386.84;;;27.36;35.48
57801;BME280;43627;42.728;23.256;2023-08-12T10:46:34;95364.56;;;26.67;34.54
57801;BME280;43627;42.728;23.256;2023-08-12T10:49:09;95342.19;;;26.75;35.16
57801;BME280;43627;42.728;23.256;2023-08-12T10:51:47;95396.56;;;27.43;33.40
57801;BME280;43627;42.728;23.256;2023-08-12T10:54:23;95393.56;;;27.41;33.66
57801;BME280;43627;42.728;23.256;2023-08-12T11:02:28;95380.44;;;28.06;32.37
57801;BME280;43627;42.728;23.256;2023-08-12T11:05:00;95388.22;;;27.83;32.33
57801;BME280;43627;42.728;23.256;2023-08-12T11:07:57;95386.03;;;27.66;31.98
57801;BME280;43627;42.728;23.256;2023-08-12T11:10:35;95388.13;;;28.06;32.31
57801;BME280;43627;42.728;23.256;2023-08-12T11:13:03;95376.56;;;28.34;32.64
57801;BME280;43627;42.728;23.256;2023-08-12T11:18:02;95330.03;;;27.99;30.76
57801;BME280;43627;42.728;23.256;2023-08-12T11:20:31;95381.53;;;28.11;31.98
57801;BME280;43627;42.728;23.256;2023-08-12T11:22:58;95334.22;;;27.82;32.24
57801;BME280;43627;42.728;23.256;2023-08-12T11:25:28;95377.16;;;28.25;31.28
57801;BME280;43627;42.728;23.256;2023-08-12T11:27:56;95377.44;;;27.64;31.63
57801;BME280;43627;42.728;23.256;2023-08-12T11:30:23;95366.84;;;27.47;31.69
57801;BME280;43627;42.728;23.256;2023-08-12T11:32:52;95362.97;;;27.91;31.77
57801;BME280;43627;42.728;23.256;2023-08-12T11:35:22;95357.22;;;28.46;31.77
57801;BME280;43627;42.728;23.256;2023-08-12T11:37:51;95358.75;;;28.39;31.17
57801;BME280;43627;42.728;23.256;2023-08-12T11:40:23;95368.72;;;28.58;31.60
57801;BME280;43627;42.728;23.256;2023-08-12T11:42:53;95366.38;;;29.31;30.89
57801;BME280;43627;42.728;23.256;2023-08-12T11:45:23;95350.19;;;29.39;30.33
57801;BME280;43627;42.728;23.256;2023-08-12T11:47:51;95343.03;;;29.28;30.67
57801;BME280;43627;42.728;23.256;2023-08-12T11:50:23;95356.97;;;29.53;31.19
57801;BME280;43627;42.728;23.256;2023-08-12T11:52:52;95361.44;;;29.22;32.80
57801;BME280;43627;42.728;23.256;2023-08-12T11:55:19;95369.69;;;29.20;33.04
57801;BME280;43627;42.728;23.256;2023-08-12T11:57:45;95352.41;;;28.64;33.11
57801;BME280;43627;42.728;23.256;2023-08-12T12:00:13;95351.44;;;28.11;33.97
57801;BME280;43627;42.728;23.256;2023-08-12T12:02:47;95357.34;;;27.43;35.60
57801;BME280;43627;42.728;23.256;2023-08-12T12:05:16;95338.03;;;27.07;35.41
57801;BME280;43627;42.728;23.256;2023-08-12T12:07:43;95349.25;;;26.84;36.16
57801;BME280;43627;42.728;23.256;2023-08-12T12:10:13;95354.66;;;26.66;36.73
57801;BME280;43627;42.728;23.256;2023-08-12T12:12:43;95323.69;;;26.34;37.50
57801;BME280;43627;42.728;23.256;2023-08-12T12:15:12;95364.75;;;26.54;37.81
57801;BME280;43627;42.728;23.256;2023-08-12T12:17:39;95352.19;;;26.32;38.48
57801;BME280;43627;42.728;23.256;2023-08-12T12:20:07;95349.63;;;26.34;39.02
57801;BME280;43627;42.728;23.256;2023-08-12T12:22:37;95344.38;;;26.15;38.58
57801;BME280;43627;42.728;23.256;2023-08-12T12:25:08;95350.69;;;26.24;39.41
57801;BME280;43627;42.728;23.256;2023-08-12T12:27:37;95343.13;;;26.47;38.13
57801;BME280;43627;42.728;23.256;2023-08-12T12:30:09;95349.44;;;26.78;38.16
57801;BME280;43627;42.728;23.256;2023-08-12T12:32:36;95343.59;;;27.22;37.59
57801;BME280;43627;42.728;23.256;2023-08-12T12:35:03;95345.31;;;27.65;36.83
57801;BME280;43627;42.728;23.256;2023-08-12T12:37:30;95342.78;;;27.92;36.73
57801;BME280;43627;42.728;23.256;2023-08-12T12:39:57;95334.44;;;28.09;36.29
57801;BME280;43627;42.728;23.256;2023-08-12T12:42:24;95327.31;;;28.16;35.11
57801;BME280;43627;42.728;23.256;2023-08-12T12:44:51;95320.59;;;27.86;35.00
57801;BME280;43627;42.728;23.256;2023-08-12T12:47:17;95315.63;;;27.62;35.00
57801;BME280;43627;42.728;23.256;2023-08-12T12:49:45;95310.50;;;27.36;35.39
57801;BME280;43627;42.728;23.256;2023-08-12T12:52:11;95323.91;;;27.93;34.53
57801;BME280;43627;42.728;23.256;2023-08-12T12:54:38;95325.47;;;28.11;34.23
57801;BME280;43627;42.728;23.256;2023-08-12T12:57:05;95300.06;;;27.76;34.40
57801;BME280;43627;42.728;23.256;2023-08-12T12:59:32;95321.13;;;27.85;35.13
57801;BME280;43627;42.728;23.256;2023-08-12T13:01:59;95314.41;;;28.13;33.84
57801;BME280;43627;42.728;23.256;2023-08-12T13:04:25;95316.75;;;28.32;34.03
57801;BME280;43627;42.728;23.256;2023-08-12T13:06:52;95319.53;;;28.32;33.89